createdAt,value
2023-04-18T00:47:19.310Z,102363.38
2023-04-18T00:49:47.279Z,102354.41
2023-04-18T00:52:15.027Z,102364.38
2023-04-18T00:54:42.718Z,102358.88
2023-04-18T00:57:10.513Z,102353.44
2023-04-18T00:59:38.815Z,102364.28
2023-04-18T01:47:33.242Z,102356.25
2023-04-18T01:50:00.959Z,102356.25
2023-04-18T01:52:29.646Z,102361.66
2023-04-18T01:54:57.432Z,102356.25
2023-04-18T01:57:25.150Z,102365.13
2023-04-18T01:59:52.862Z,102358.88
2023-04-18T02:46:21.341Z,102360.47
2023-04-18T02:48:50.138Z,102355.16
2023-04-18T02:51:20.028Z,102356.06
2023-04-18T02:53:48.364Z,102353.56
2023-04-18T02:56:16.895Z,102357.13
2023-04-18T02:59:03.225Z,102356.25
2023-04-18T03:48:29.997Z,102374.31
2023-04-18T03:51:02.038Z,102371.72
2023-04-18T03:53:31.712Z,102376.19
2023-04-18T03:55:59.436Z,102373.34
2023-04-18T03:58:41.223Z,102383.34
2023-04-18T04:48:07.123Z,102395.03
2023-04-18T04:50:36.831Z,102395.88
2023-04-18T04:53:04.753Z,102405.84
2023-04-18T04:55:32.534Z,102397.63
2023-04-18T04:58:01.030Z,102402.06
2023-04-18T05:00:47.894Z,102405.53
2023-04-18T05:03:17.055Z,102411.72
2023-04-18T05:05:45.315Z,102407.09
2023-04-18T05:08:12.979Z,102406.97
2023-04-18T05:10:41.525Z,102416.91
2023-04-18T05:13:09.223Z,102423.22
2023-04-18T05:15:37.194Z,102406.09
2023-04-18T05:18:05.198Z,102406.97
2023-04-18T05:20:34.383Z,102413.25
2023-04-18T05:23:02.096Z,102412.41
2023-04-18T05:25:31.571Z,102425.84
2023-04-18T05:28:08.382Z,102421.38
2023-04-18T05:30:36.128Z,102418.66
2023-04-18T05:33:04.331Z,102414.09
2023-04-18T05:35:32.120Z,102417.47
2023-04-18T05:38:01.152Z,102413.03
2023-04-18T05:40:28.799Z,102421.06
2023-04-18T05:42:56.512Z,102421.91
2023-04-18T05:45:24.199Z,102412.88
2023-04-18T05:47:53.850Z,102412.88
2023-04-18T05:50:21.723Z,102418.72
2023-04-18T05:52:49.500Z,102426.53
2023-04-18T05:55:18.790Z,102424.59
2023-04-18T05:57:46.557Z,102431.66
2023-04-18T06:00:14.713Z,102430.66
2023-04-18T06:02:42.492Z,102428.72
2023-04-18T06:05:10.779Z,102425.03
2023-04-18T06:07:38.728Z,102425.91
2023-04-18T06:10:09.242Z,102434.78
2023-04-18T06:12:38.414Z,102435.13
2023-04-18T06:15:06.828Z,102430.88
2023-04-18T06:17:34.923Z,102439.22
2023-04-18T06:20:03.842Z,102449.03
2023-04-18T06:22:31.511Z,102445.47
2023-04-18T06:24:59.198Z,102439.78
2023-04-18T06:27:31.665Z,102446.59
2023-04-18T06:30:01.198Z,102437.38
2023-04-18T06:32:28.909Z,102453.66
2023-04-18T06:34:56.721Z,102449.16
2023-04-18T06:37:24.546Z,102441.00
2023-04-18T06:39:52.237Z,102447.97
2023-04-18T06:42:22.211Z,102447.47
2023-04-18T06:44:50.238Z,102450.94
2023-04-18T06:47:19.280Z,102444.81
2023-04-18T06:49:47.023Z,102454.75
2023-04-18T06:52:14.769Z,102453.44
2023-04-18T06:54:42.504Z,102452.97
2023-04-18T06:57:10.249Z,102452.59
2023-04-18T06:59:37.972Z,102455.91
2023-04-18T07:02:05.659Z,102460.94
2023-04-18T07:04:34.852Z,102459.00
2023-04-18T07:07:03.786Z,102455.34
2023-04-18T07:09:31.491Z,102450.13
2023-04-18T07:11:59.238Z,102455.34
2023-04-18T07:14:27.320Z,102453.31
2023-04-18T07:16:55.149Z,102449.34
2023-04-18T07:19:22.925Z,102461.72
2023-04-18T07:21:52.021Z,102462.31
2023-04-18T07:24:19.700Z,102463.97
2023-04-18T07:26:47.409Z,102457.50
2023-04-18T07:29:15.127Z,102457.28
2023-04-18T07:31:42.937Z,102470.72
2023-04-18T07:34:11.495Z,102459.03
2023-04-18T07:36:39.525Z,102466.97
2023-04-18T07:39:08.659Z,102463.22
2023-04-18T07:41:36.328Z,102465.63
2023-04-18T07:44:04.176Z,102461.75
2023-04-18T07:46:32.447Z,102468.72
2023-04-18T07:49:00.232Z,102464.84
2023-04-18T07:51:31.404Z,102468.34
2023-04-18T07:53:59.370Z,102468.16
2023-04-18T07:56:28.761Z,102467.06
2023-04-18T07:58:56.507Z,102467.78
2023-04-18T08:01:27.053Z,102469.34
2023-04-18T08:03:56.627Z,102465.66
2023-04-18T08:06:24.449Z,102469.13
2023-04-18T08:08:52.415Z,102469.13
2023-04-18T08:11:20.161Z,102467.19
2023-04-18T08:13:49.335Z,102462.69
2023-04-18T08:16:17.581Z,102470.69
2023-04-18T08:18:45.507Z,102469.72
2023-04-18T08:21:13.224Z,102474.16
2023-04-18T08:23:40.943Z,102483.03
2023-04-18T08:26:08.818Z,102482.19
2023-04-18T08:28:36.434Z,102473.09
2023-04-18T08:31:05.801Z,102476.56
2023-04-18T08:33:33.500Z,102478.28
2023-04-18T08:36:01.257Z,102475.50
2023-04-18T08:38:28.945Z,102482.66
2023-04-18T08:40:56.615Z,102472.69
2023-04-18T08:43:25.438Z,102474.44
2023-04-18T08:45:53.901Z,102466.31
2023-04-18T08:48:23.072Z,102470.78
2023-04-18T08:50:51.268Z,102463.63
2023-04-18T08:53:19.060Z,102475.19
2023-04-18T08:55:50.578Z,102478.78
2023-04-18T08:58:22.303Z,102467.97
2023-04-18T09:00:53.212Z,102460.81
2023-04-18T09:03:37.398Z,102468.84
2023-04-18T09:06:10.280Z,102467.97
2023-04-18T09:08:38.256Z,102461.66
2023-04-18T09:11:21.349Z,102468.84
2023-04-18T09:13:50.351Z,102475.19
2023-04-18T09:16:19.493Z,102477.91
2023-04-18T09:19:02.182Z,102471.63
2023-04-18T09:21:32.775Z,102476.09
2023-04-18T09:24:07.869Z,102473.38
2023-04-18T09:26:36.339Z,102466.13
2023-04-18T09:29:05.168Z,102455.22
2023-04-18T09:31:33.060Z,102467.78
2023-04-18T09:34:03.004Z,102467.78
2023-04-18T09:36:32.369Z,102470.38
2023-04-18T09:39:00.248Z,102473.00
2023-04-18T09:41:30.481Z,102480.13
2023-04-18T09:44:10.274Z,102477.50
2023-04-18T09:46:39.236Z,102475.69
2023-04-18T09:49:08.474Z,102481.88
2023-04-18T09:51:39.379Z,102469.09
2023-04-18T09:54:07.197Z,102485.34
2023-04-18T09:56:34.950Z,102473.47
2023-04-18T09:59:04.719Z,102473.47
2023-04-18T10:01:32.584Z,102461.53
2023-04-18T10:04:00.368Z,102456.13
2023-04-18T10:06:28.581Z,102459.63
2023-04-18T10:08:57.654Z,102459.44
2023-04-18T10:11:25.557Z,102459.44
2023-04-18T10:13:54.696Z,102463.75
2023-04-18T10:16:22.461Z,102453.81
2023-04-18T10:18:50.235Z,102451.88
2023-04-18T10:21:17.877Z,102459.91
2023-04-18T10:23:48.756Z,102451.66
2023-04-18T10:26:17.825Z,102459.78
2023-04-18T10:28:53.090Z,102453.38
2023-04-18T10:31:21.926Z,102455.13
2023-04-18T10:34:00.786Z,102457.75
2023-04-18T10:36:32.421Z,102453.19
2023-04-18T10:39:01.071Z,102444.09
2023-04-18T10:41:30.455Z,102454.94
2023-04-18T10:44:18.279Z,102437.94
2023-04-18T10:47:04.836Z,102453.00
2023-04-18T10:49:35.462Z,102437.63
2023-04-18T10:52:03.466Z,102437.53
2023-04-18T10:54:32.057Z,102443.72
2023-04-18T10:57:01.642Z,102440.91
2023-04-18T10:59:29.989Z,102443.50
2023-04-18T11:01:57.838Z,102440.69
2023-04-18T11:04:25.624Z,102458.78
2023-04-18T11:06:54.996Z,102448.81
2023-04-18T11:09:22.791Z,102443.31
2023-04-18T11:12:04.612Z,102450.44
2023-04-18T11:14:40.259Z,102446.75
2023-04-18T11:17:18.169Z,102446.75
2023-04-18T11:19:46.042Z,102448.50
2023-04-18T11:22:13.813Z,102439.41
2023-04-18T11:24:41.480Z,102441.16
2023-04-18T11:27:11.125Z,102439.41
2023-04-18T11:29:38.818Z,102425.75
2023-04-18T11:32:07.020Z,102436.59
2023-04-18T11:34:35.659Z,102426.66
2023-04-18T11:37:06.690Z,102428.38
2023-04-18T11:39:35.040Z,102422.84
2023-04-18T11:42:02.941Z,102437.28
2023-04-18T11:44:33.099Z,102432.72
2023-04-18T11:47:02.005Z,102433.13
2023-04-18T11:49:30.144Z,102434.00
2023-04-18T11:51:57.856Z,102421.25
2023-04-18T11:54:39.306Z,102419.69
2023-04-18T11:57:07.266Z,102434.00
2023-04-18T11:59:36.590Z,102420.34
2023-04-18T12:02:15.554Z,102422.94
2023-04-18T12:04:57.196Z,102421.03
2023-04-18T12:07:32.237Z,102413.00
2023-04-18T12:10:00.188Z,102412.81
2023-04-18T12:12:27.836Z,102419.94
2023-04-18T12:15:03.310Z,102421.69
2023-04-18T12:17:31.409Z,102417.13
2023-04-18T12:20:02.064Z,102423.44
2023-04-18T12:22:43.050Z,102422.53
2023-04-18T12:25:11.258Z,102427.97
2023-04-18T12:27:48.564Z,102418.88
2023-04-18T12:30:20.037Z,102429.72
2023-04-18T12:32:47.986Z,102425.16
2023-04-18T12:35:16.085Z,102415.22
2023-04-18T12:37:43.872Z,102417.91
2023-04-18T12:40:13.683Z,102410.66
2023-04-18T12:42:41.604Z,102423.22
2023-04-18T12:45:10.659Z,102422.34
2023-04-18T12:47:40.214Z,102415.00
2023-04-18T12:50:11.229Z,102419.53
2023-04-18T12:52:39.472Z,102409.59
2023-04-18T12:55:07.945Z,102411.31
2023-04-18T12:57:35.638Z,102412.16
2023-04-18T13:00:04.648Z,102415.75
2023-04-18T13:02:34.468Z,102422.03
2023-04-18T13:05:03.858Z,102414.75
2023-04-18T13:07:32.110Z,102413.03
2023-04-18T13:09:59.862Z,102410.22
2023-04-18T13:12:29.367Z,102409.34
2023-04-18T13:14:57.300Z,102403.94
2023-04-18T13:17:25.004Z,102413.91
2023-04-18T13:19:53.308Z,102400.47
2023-04-18T13:22:22.376Z,102409.34
2023-04-18T13:24:50.248Z,102409.34
2023-04-18T13:27:17.996Z,102397.56
2023-04-18T13:29:46.734Z,102396.69
2023-04-18T13:32:14.377Z,102400.38
2023-04-18T13:34:43.319Z,102403.94
2023-04-18T13:37:10.968Z,102399.41
2023-04-18T13:39:40.257Z,102393.09
2023-04-18T13:42:08.015Z,102399.41
2023-04-18T13:44:35.974Z,102398.50
2023-04-18T13:47:04.011Z,102393.97
2023-04-18T13:49:31.668Z,102399.41
2023-04-18T13:51:59.381Z,102400.25
2023-04-18T13:54:27.580Z,102394.84
2023-04-18T13:56:57.169Z,102396.63
2023-04-18T13:59:24.817Z,102400.25
2023-04-18T14:01:52.606Z,102396.63
2023-04-18T14:04:21.324Z,102402.03
2023-04-18T14:06:49.304Z,102392.13
2023-04-18T14:09:17.530Z,102385.78
2023-04-18T14:11:45.411Z,102385.78
2023-04-18T14:14:14.814Z,102386.66
2023-04-18T14:16:42.525Z,102380.38
2023-04-18T14:19:10.216Z,102382.97
2023-04-18T14:21:37.866Z,102382.97
2023-04-18T14:24:06.789Z,102378.59
2023-04-18T14:26:34.413Z,102380.38
2023-04-18T14:29:03.988Z,102374.97
2023-04-18T14:31:33.192Z,102378.59
2023-04-18T14:34:00.918Z,102374.06
2023-04-18T14:36:28.608Z,102380.38
2023-04-18T14:38:56.544Z,102367.75
2023-04-18T14:41:24.242Z,102374.97
2023-04-18T14:43:51.957Z,102372.16
2023-04-18T14:46:19.642Z,102358.72
2023-04-18T14:48:48.893Z,102364.03
2023-04-18T14:51:16.662Z,102356.75
2023-04-18T14:53:44.603Z,102367.59
2023-04-18T14:56:12.323Z,102358.50
2023-04-18T14:58:40.039Z,102357.59
2023-04-18T15:01:07.689Z,102355.91
2023-04-18T15:03:35.560Z,102354.03
2023-04-18T15:06:04.973Z,102350.47
2023-04-18T15:08:32.948Z,102351.34
2023-04-18T15:11:01.092Z,102341.34
2023-04-18T15:13:28.809Z,102342.25
2023-04-18T15:15:57.148Z,102342.25
2023-04-18T15:18:24.802Z,102348.63
2023-04-18T15:20:52.581Z,102336.84
2023-04-18T15:23:21.555Z,102350.47
2023-04-18T15:25:49.247Z,102344.97
2023-04-18T15:28:18.337Z,102341.34
2023-04-18T15:30:46.355Z,102345.91
2023-04-18T15:33:14.215Z,102346.03
2023-04-18T15:35:41.964Z,102342.25
2023-04-18T15:38:09.610Z,102342.25
2023-04-18T15:40:38.715Z,102348.53
2023-04-18T15:43:06.592Z,102359.34
2023-04-18T15:45:34.253Z,102348.63
2023-04-18T15:48:02.194Z,102343.31
2023-04-18T15:50:32.098Z,102353.09
2023-04-18T15:53:01.550Z,102343.31
2023-04-18T15:55:29.283Z,102350.59
2023-04-18T15:57:58.369Z,102345.06
2023-04-18T16:00:26.392Z,102346.88
2023-04-18T16:02:54.269Z,102350.59
2023-04-18T16:05:22.009Z,102350.47
2023-04-18T16:07:49.787Z,102346.03
2023-04-18T16:10:17.520Z,102351.34
2023-04-18T16:12:45.211Z,102345.91
2023-04-18T16:15:14.653Z,102342.34
2023-04-18T16:17:42.424Z,102347.88
2023-04-18T16:20:10.790Z,102347.88
2023-04-18T16:22:38.450Z,102347.88
2023-04-18T16:25:06.696Z,102340.69
2023-04-18T16:27:34.367Z,102341.56
2023-04-18T16:30:02.474Z,102346.09
2023-04-18T16:32:31.696Z,102342.47
2023-04-18T16:34:59.439Z,102346.09
2023-04-18T16:37:27.168Z,102346.09
2023-04-18T16:39:54.844Z,102344.28
2023-04-18T16:42:22.630Z,102340.69
2023-04-18T16:44:50.554Z,102337.78
2023-04-18T16:47:19.145Z,102347.00
2023-04-18T16:49:48.210Z,102347.88
2023-04-18T16:52:16.909Z,102343.31
2023-04-18T16:54:44.555Z,102345.16
2023-04-18T16:57:12.222Z,102349.59
2023-04-18T16:59:40.250Z,102350.47
2023-04-18T17:02:08.106Z,102345.91
2023-04-18T17:04:36.896Z,102343.31
2023-04-18T17:07:06.466Z,102337.22
2023-04-18T17:09:34.236Z,102350.66
2023-04-18T17:12:01.895Z,102358.72
2023-04-18T17:14:29.638Z,102351.50
2023-04-18T17:16:57.484Z,102349.78
2023-04-18T17:19:26.216Z,102365.16
2023-04-18T17:21:53.937Z,102349.78
2023-04-18T17:24:23.528Z,102358.88
2023-04-18T17:26:51.230Z,102365.25
2023-04-18T17:29:19.082Z,102351.72
2023-04-18T17:31:46.836Z,102365.25
2023-04-18T17:34:14.548Z,102362.56
2023-04-18T17:36:42.481Z,102371.69
2023-04-18T17:39:10.173Z,102377.09
2023-04-18T17:41:39.330Z,102359.94
2023-04-18T17:44:07.800Z,102368.06
2023-04-18T17:46:35.884Z,102371.69
2023-04-18T17:49:04.633Z,102373.50
2023-04-18T17:51:32.346Z,102371.78
2023-04-18T17:54:00.065Z,102369.06
2023-04-18T17:56:30.411Z,102374.59
2023-04-18T17:58:59.486Z,102380.00
2023-04-18T18:01:30.186Z,102385.53
2023-04-18T18:03:58.161Z,102381.06
2023-04-18T18:06:27.483Z,102389.19
2023-04-18T18:08:55.925Z,102380.09
2023-04-18T18:11:24.179Z,102378.38
2023-04-18T18:13:54.612Z,102388.34
2023-04-18T18:16:24.077Z,102387.44
2023-04-18T18:18:52.139Z,102397.41
2023-04-18T18:21:19.818Z,102386.59
2023-04-18T18:23:47.594Z,102398.28
2023-04-18T18:26:15.418Z,102395.69
2023-04-18T18:28:43.129Z,102411.91
2023-04-18T18:31:10.859Z,102406.50
2023-04-18T18:33:39.936Z,102408.25
2023-04-18T18:36:07.659Z,102409.31
2023-04-18T18:38:35.453Z,102414.63
2023-04-18T18:41:04.635Z,102413.00
2023-04-18T18:43:32.684Z,102412.91
2023-04-18T18:46:00.505Z,102419.28
2023-04-18T18:48:28.237Z,102415.63
2023-04-18T18:50:58.284Z,102423.84
2023-04-18T18:53:26.012Z,102424.69
2023-04-18T18:55:53.739Z,102421.03
2023-04-18T18:58:21.647Z,102424.69
2023-04-18T19:00:49.349Z,102417.53
2023-04-18T19:03:19.378Z,102426.66
2023-04-18T19:05:47.347Z,102430.13
2023-04-18T19:08:16.558Z,102425.66
2023-04-18T19:10:44.265Z,102422.09
2023-04-18T19:13:12.044Z,102444.63
2023-04-18T19:15:39.789Z,102435.72
2023-04-18T19:18:07.670Z,102442.00
2023-04-18T19:20:38.808Z,102444.63
2023-04-18T19:23:06.457Z,102434.78
2023-04-18T19:25:35.541Z,102426.66
2023-04-18T19:28:04.879Z,102435.72
2023-04-18T19:30:32.538Z,102426.66
2023-04-18T19:33:00.422Z,102434.00
2023-04-18T19:35:28.402Z,102430.53
2023-04-18T19:38:01.447Z,102430.53
2023-04-18T19:40:29.167Z,102428.56
2023-04-18T19:42:58.245Z,102442.00
2023-04-18T19:45:25.971Z,102433.13
2023-04-18T19:47:53.928Z,102442.91
2023-04-18T19:50:21.586Z,102435.72
2023-04-18T19:52:49.282Z,102439.41
2023-04-18T19:55:16.941Z,102437.69
2023-04-18T19:57:44.592Z,102443.97
2023-04-18T20:00:14.217Z,102450.22
2023-04-18T20:02:43.065Z,102460.19
2023-04-18T20:05:11.367Z,102440.41
2023-04-18T20:07:39.247Z,102448.50
2023-04-18T20:10:08.862Z,102453.13
2023-04-18T20:12:36.674Z,102452.19
2023-04-18T20:15:04.557Z,102467.47
2023-04-18T20:17:34.685Z,102450.22
2023-04-18T20:20:02.809Z,102447.63
2023-04-18T20:22:32.503Z,102461.06
2023-04-18T20:25:01.102Z,102447.63
2023-04-18T20:27:28.841Z,102455.84
2023-04-18T20:29:57.468Z,102455.84
2023-04-18T20:32:25.312Z,102454.13
2023-04-18T20:34:54.690Z,102448.72
2023-04-18T20:37:22.478Z,102451.44
2023-04-18T20:39:50.150Z,102450.44
2023-04-18T20:42:18.616Z,102445.16
2023-04-18T20:44:46.891Z,102444.25
2023-04-18T20:47:15.740Z,102446.97
2023-04-18T20:49:43.600Z,102446.97
2023-04-18T20:52:14.455Z,102447.06
2023-04-18T20:54:42.609Z,102439.84
2023-04-18T20:57:10.397Z,102444.25
2023-04-18T20:59:38.125Z,102446.97
2023-04-18T21:02:05.858Z,102437.03
2023-04-18T21:04:33.808Z,102439.84
2023-04-18T21:07:01.623Z,102445.34
2023-04-18T21:09:36.401Z,102439.06
2023-04-18T21:12:04.005Z,102442.66
2023-04-18T21:14:31.629Z,102441.00
2023-04-18T21:16:59.260Z,102446.50
2023-04-18T21:19:26.990Z,102441.97
2023-04-18T21:21:54.786Z,102441.31
2023-04-18T21:24:22.473Z,102437.63
2023-04-18T21:26:51.700Z,102449.31
2023-04-18T21:29:19.408Z,102440.25
2023-04-18T21:31:48.923Z,102450.19
2023-04-18T21:34:16.796Z,102437.63
2023-04-18T21:36:44.685Z,102437.75
2023-04-18T21:39:12.457Z,102447.56
2023-04-18T21:41:40.229Z,102451.28
2023-04-18T21:44:09.281Z,102443.16
2023-04-18T21:46:36.850Z,102452.13
2023-04-18T21:49:04.523Z,102450.38
2023-04-18T21:51:32.901Z,102456.69
2023-04-18T21:54:00.611Z,102449.53
2023-04-18T21:56:28.614Z,102450.38
2023-04-18T21:58:56.317Z,102449.53
2023-04-18T22:01:25.421Z,102444.97
2023-04-18T22:03:53.449Z,102433.28
2023-04-18T22:06:23.086Z,102436.94
2023-04-18T22:08:51.669Z,102448.66
2023-04-18T22:11:19.401Z,102434.34
2023-04-18T22:13:47.429Z,102438.69
2023-04-18T22:16:15.500Z,102430.69
2023-04-18T22:18:44.609Z,102436.94
2023-04-18T22:21:12.291Z,102434.25
2023-04-18T22:23:40.008Z,102435.22
2023-04-18T22:26:07.661Z,102430.69
2023-04-18T22:28:35.568Z,102431.53
2023-04-18T22:31:03.307Z,102419.00
2023-04-18T22:33:30.923Z,102419.00
2023-04-18T22:35:59.904Z,102424.41
2023-04-18T22:38:27.519Z,102419.00
2023-04-18T22:40:55.251Z,102413.59
2023-04-18T22:43:24.854Z,102422.66
2023-04-18T22:45:52.534Z,102420.81
2023-04-18T22:48:20.282Z,102415.50
2023-04-18T22:50:49.743Z,102414.63
2023-04-18T22:53:19.025Z,102408.38
2023-04-18T22:55:47.001Z,102414.63
2023-04-18T22:58:14.654Z,102406.41
2023-04-18T23:47:32.065Z,102394.94
2023-04-18T23:49:59.736Z,102395.81
2023-04-18T23:52:27.385Z,102390.38
2023-04-18T23:54:55.464Z,102378.81
2023-04-18T23:57:23.184Z,102378.03
2023-04-18T23:59:51.056Z,102379.00
